Ship Status Report: callsign BATEU06

sailwx.info

Track history (hours):
 
Tides and Currents Weather Stations Pressure Air Temp Water Temp Dewpoint Dewpoint Depression Visibility Wind Speed Wind Dir Waves Ship Positions

Callsign BATEU06 (name unknown)

Last reported at 2017-Feb-21 11:00 UTC. Time now 2017-Feb-21 12:03 UTC.
Position N 46°12' W 053°00'.

Wind from 020 at 13 knots

Barometer 1013.9 mb
Air temperature -1.6 ° C
Dewpoint -3.3 ° C
Water temperature 2.0 ° C

Date/timePositionNaut miles runAvg speedWind from/ knotsBaromVisibWave heightAir tempDewpointWater temp
2017-Feb-21 11:00N 46°12' W 053°00'1413.8 020 / 131013.9 -1.6-3.3 2.0
2017-Feb-21 10:00N 46°18' W 053°18'1716.6 020 / 141013.1 -1.6-3.6 1.9
2017-Feb-21 09:00N 46°18' W 053°42'1212.4 010 / 121013.6 -1.7-4.0 2.2
2017-Feb-21 08:00N 46°18' W 054°00'1413.8 020 / 111013.4 -1.6-3.3 2.2
2017-Feb-21 07:00N 46°24' W 054°18'1212.4 030 / 121013.7 -1.6-3.3 2.4
2017-Feb-21 06:00N 46°24' W 054°36'1212.4 020 / 121013.3 -1.6-3.8 2.5
2017-Feb-21 05:00N 46°24' W 054°54'1413.8 020 / 131012.7 -1.3-3.3 2.9
2017-Feb-21 04:00N 46°30' W 055°12'1212.4 030 / 131013.7 -1.3-3.6 2.9
2017-Feb-21 03:00N 46°30' W 055°30'1716.5 040 / 151013.6 -1.2-3.3 2.9
2017-Feb-21 02:00N 46°30' W 055°54'1413.8 030 / 141013.3 -0.8-2.8 2.9
2017-Feb-21 01:00N 46°36' W 056°12'1212.4 020 / 121013.0 -0.3-2.3 2.7
2017-Feb-21 00:00N 46°36' W 056°30'1413.7 030 / 131012.7 -0.3-2.3 3.2
2017-Feb-20 23:00N 46°42' W 056°48'1413.7 040 / 131012.6 -0.3-2.5 3.2
2017-Feb-20 22:00N 46°48' W 057°06'1413.7 040 / 141011.8 -0.5-2.2 3.7
2017-Feb-20 21:00N 46°54' W 057°24'1413.7 040 / 141010.9 -0.3-2.6 3.7
2017-Feb-20 20:00N 47°00' W 057°42'1616.4 050 / 141010.4 -0.3-3.0 3.5
2017-Feb-20 19:00N 47°00' W 058°06'1413.7 030 / 111010.1 -0.5-2.5 3.7
2017-Feb-20 18:00N 47°06' W 058°24'1413.6 040 / 101009.6 -0.8-2.3 3.4
2017-Feb-20 17:00N 47°12' W 058°42'1413.6 020 / 81009.9 -0.8-3.7 3.5
2017-Feb-20 16:00N 47°18' W 059°00'1413.6 330 / 101010.4 -0.8-4.3 3.5
2017-Feb-20 15:00N 47°24' W 059°18'1413.6 320 / 131010.8 -1.5-5.3 2.7
2017-Feb-20 14:00N 47°30' W 059°36'1413.5 330 / 121011.3 -2.3-6.1 2.2
2017-Feb-20 13:00N 47°36' W 059°54'1413.5 330 / 101010.9 -2.2-6.0 2.7
2017-Feb-20 12:00N 47°42' W 060°12'1413.5 350 / 91010.1 -2.1-6.3 2.5
2017-Feb-20 11:00N 47°48' W 060°30'1717.0 340 / 101009.1 -1.8-5.6 2.4
2017-Feb-20 10:00N 48°00' W 060°48'1313.4 360 / 81008.7 -2.0-5.5 1.9
2017-Feb-20 09:00N 48°06' W 061°06'1313.4 340 / 91008.5 -2.1-4.3 1.9
2017-Feb-20 08:00N 48°12' W 061°24'1313.4 340 / 91008.1 -2.3-4.3 1.7
2017-Feb-20 07:00N 48°18' W 061°42'1313.4 340 / 101007.7 -2.2-4.5 1.7
2017-Feb-20 06:00N 48°24' W 062°00'2019.9 340 / 101007.4 -2.3-5.3 1.7
2017-Feb-20 05:00N 48°36' W 062°24'1313.3 330 / 111007.1 -2.3-6.3 1.5
2017-Feb-20 04:00N 48°42' W 062°42'1313.3 320 / 131007.0 -2.3-6.0 1.9
2017-Feb-20 03:00N 48°48' W 063°00'1313.3 320 / 141007.1 -2.3-4.7 1.7
2017-Feb-20 02:00N 48°54' W 063°18'1716.8 320 / 141006.9 -2.5-5.0 1.4
2017-Feb-20 01:00N 49°06' W 063°36'1313.2 310 / 141006.6 -2.8-5.0 1.4
2017-Feb-20 00:00N 49°12' W 063°54'2814.0 310 / 161006.1 -2.8-4.8 1.0
2017-Feb-19 22:00N 49°18' W 064°36'1615.7 290 / 111005.0 -4.1-5.8 1.4
2017-Feb-19 21:00N 49°18' W 065°00'1716.7 270 / 111004.3 -4.1-5.8 1.5
2017-Feb-19 20:00N 49°24' W 065°24'1615.6 270 / 71003.4 -3.5-5.6 1.7
2017-Feb-19 19:00N 49°24' W 065°48'1313.2 310 / 21002.8 -3.3-5.2 1.5
2017-Feb-19 18:00N 49°18' W 066°06'3216.0 050 / 71001.8 -3.6-4.6 1.5
2017-Feb-19 16:00N 49°12' W 066°54'1313.2 030 / 121001.0 -3.2-4.0 1.4
2017-Feb-19 15:00N 49°06' W 067°12'1716.8 030 / 191000.4 -3.3-5.3 1.2
2017-Feb-19 14:00N 49°00' W 067°36'1313.3 040 / 21999.8 -3.8-6.5 0.9
2017-Feb-19 13:00N 48°54' W 067°54'1313.3 050 / 14999.1 -3.5-5.6 0.7
2017-Feb-19 12:00N 48°48' W 068°12'10 9.9 050 / 14998.2 -3.3-4.7 0.7
2017-Feb-19 11:00N 48°42' W 068°24'1313.3 050 / 12997.4 -3.1-3.8 0.9
2017-Feb-19 10:00N 48°36' W 068°42'1716.9 050 / 13996.1 -2.8-3.6 1.4
2017-Feb-19 09:00N 48°24' W 069°00'1313.4 010 / 14996.1 -2.6-3.1 0.7
2017-Feb-19 08:00N 48°18' W 069°18'1717.0 340 / 8995.3 -2.8-4.2 0.7
2017-Feb-19 07:00N 48°06' W 069°36'2019.7 020 / 10993.6 -2.6-4.2 1.5
2017-Feb-19 06:00N 47°48' W 069°48'1717.1 030 / 9993.0 -2.2-3.8 1.4
2017-Feb-19 05:00N 47°36' W 070°06'3919.3 060 / 6992.2 -1.3-3.0 1.7
2017-Feb-19 03:00N 47°06' W 070°42'1514.5 230 / 15991.8 0.7-3.3 1.9
2017-Feb-19 02:00N 46°54' W 070°54'1413.7 220 / 8993.5 -0.2-5.6 2.0
2017-Feb-19 01:00N 46°48' W 071°12'1413.7 220 / 6994.3 -0.5-4.0 2.2
2017-Feb-19 00:00N 46°42' W 071°30'1616.5 100 / 1993.4 -0.2-6.6 2.0
2017-Feb-18 23:00N 46°42' W 071°54'1717.2 060 / 4992.8 -0.3-4.5 2.0
2017-Feb-18 22:00N 46°30' W 072°12'1413.8 040 / 6992.2 0.2-5.0 1.9
2017-Feb-18 21:00N 46°24' W 072°30'1010.2 220 / 7993.5 3.5-7.0 1.9
2017-Feb-18 20:00N 46°18' W 072°42'1010.2 230 / 4994.6 1.7-6.3 2.4
2017-Feb-18 19:00N 46°12' W 072°54'1010.3 190 / 10995.6 3.4-5.5 2.2
2017-Feb-18 18:00N 46°06' W 073°06'1312.7 200 / 3997.0 1.4-6.6 1.9
2017-Feb-18 17:00N 45°54' W 073°12'1514.6 300 / 2999.1 -0.3-6.6 1.9
2017-Feb-18 16:00N 45°42' W 073°24'7 7.3 140 / 91000.1 1.2-5.8 1.9
2017-Feb-18 15:00N 45°36' W 073°30'   150 / 41000.9 0.4-6.7 1.7
2017-Feb-15 23:00N 45°42' W 073°30'1010.3 360 / 15995.8 -4.8-5.8 1.7
2017-Feb-15 22:00N 45°48' W 073°18'7 7.3 010 / 11995.9 -3.3-5.8 1.7
2017-Feb-15 21:00N 45°54' W 073°12'1312.7 030 / 15995.9 -2.8-5.7 1.7
2017-Feb-15 20:00N 46°06' W 073°06'1010.3 030 / 17996.1 -3.3-5.8 1.7
2017-Feb-15 19:00N 46°12' W 072°54'1010.2 040 / 16996.8 -5.2-6.6 1.7
2017-Feb-15 18:00N 46°18' W 072°42'8 8.3 050 / 18997.2 -5.8-6.6 1.9
2017-Feb-15 17:00N 46°18' W 072°30'1010.2 060 / 11998.2 -5.6-7.3 1.9
2017-Feb-15 16:00N 46°24' W 072°18'1514.6 060 / 14999.3 -5.5-8.6 1.9
2017-Feb-15 15:00N 46°36' W 072°06'1010.2 080 / 181000.0 -5.7-7.3 1.9
2017-Feb-15 14:00N 46°42' W 071°54'1212.3 070 / 181001.5 -6.7-8.5 1.9
2017-Feb-15 13:00N 46°42' W 071°36'1817.5 080 / 191002.4 -6.7-8.1 1.9
2017-Feb-15 12:00N 46°48' W 071°12'2713.6 060 / 161004.0 -7.1-10.1 1.7
2017-Feb-15 10:00N 47°06' W 070°42'2019.8 010 / 131006.6 -7.5-10.3 1.7
2017-Feb-15 09:00N 47°24' W 070°30'2020.2 300 / 81006.7 -9.8-12.6 1.2
2017-Feb-15 08:00N 47°36' W 070°06'1717.1 010 / 31007.5 -8.3-11.3 1.2
2017-Feb-15 07:00N 47°48' W 069°48'2019.7 080 / 71008.0 -8.1-11.6 1.0
2017-Feb-15 06:00N 48°06' W 069°36'1414.4 030 / 71008.6 -8.8-11.3 0.7
2017-Feb-15 05:00N 48°18' W 069°24'1010.0 340 / 71009.2 -9.8-12.7 0.4
2017-Feb-15 04:00N 48°24' W 069°12'1716.9 340 / 111009.0 -9.0-11.6 1.4
2017-Feb-15 03:00N 48°36' W 068°54'1313.3 1009.3 -7.8-11.0 1.7
2017-Feb-15 02:00N 48°42' W 068°36'3014.9 360 / 101009.5 -8.3-11.6 1.0
2017-Feb-15 00:00N 49°00' W 068°00'1313.2 030 / 91009.7 -7.7-11.3 0.7
2017-Feb-14 23:00N 49°06' W 067°42'3015.0 030 / 121009.6 -7.8-10.8 0.9
2017-Feb-14 21:00N 49°18' W 067°00'3215.9 040 / 131009.5 -7.6-10.8 0.5
2017-Feb-14 19:00N 49°24' W 066°12'1716.7 050 / 101010.1 -7.5-11.1 0.4
2017-Feb-14 18:00N 49°30' W 065°48'1716.7 030 / 101010.1 -7.3-11.1 0.5
2017-Feb-14 17:00N 49°24' W 065°24'1615.6 1010.5 -7.6-11.2 1.9
2017-Feb-14 16:00N 49°24' W 065°00'1615.6 1010.7 -8.3-11.7 1.7
2017-Feb-14 15:00N 49°24' W 064°36'1615.6 1010.9 -9.2-12.0 1.7
2017-Feb-14 14:00N 49°24' W 064°12'1716.7 1010.8 -9.5-12.1 1.7
2017-Feb-14 13:00N 49°18' W 063°48'1313.2 1009.6 -9.5-11.8 1.2
2017-Feb-14 12:00N 49°12' W 063°30'3014.8 1008.7 -9.0-11.3 0.4
2017-Feb-14 10:00N 48°54' W 062°54'1716.9 010 / 271006.0 -8.8-10.6 0.7
2017-Feb-14 09:00N 48°48' W 062°30'1716.9 020 / 291005.9 -7.3-9.2 0.4
2017-Feb-14 08:00N 48°36' W 062°12'1313.3 050 / 231005.3 -5.3-9.0 0.9
2017-Feb-14 07:00N 48°30' W 061°54'1313.4 060 / 261005.0 -5.0-8.3 1.0
2017-Feb-14 06:00N 48°24' W 061°36'1717.0 060 / 271004.4 -4.7-8.1 0.9
2017-Feb-14 05:00N 48°12' W 061°18'1717.1 060 / 281004.5 -5.0-9.1 0.9
2017-Feb-14 04:00N 48°06' W 060°54'1313.4 060 / 321004.3 -5.3-9.5 1.2
2017-Feb-14 03:00N 48°00' W 060°36'1313.5 060 / 271004.3 -5.7-9.1 1.5
2017-Feb-14 02:00N 47°54' W 060°18'1717.0 060 / 261004.8 -6.3-10.2 1.5
2017-Feb-14 01:00N 47°42' W 060°00'1717.2 060 / 301004.7 -6.1-11.6 2.2
2017-Feb-14 00:00N 47°36' W 059°36'1413.5 070 / 351005.3 2.2 -6.8-12.2 1.5
2017-Feb-13 23:00N 47°30' W 059°18'3115.4 070 / 501003.2 -6.3-10.3 2.0
2017-Feb-13 21:00N 47°18' W 058°36'1413.6 080 / 451005.7 -5.1-7.8 2.5
2017-Feb-13 20:00N 47°12' W 058°18'1717.4 070 / 411006.3 -5.2-7.3 2.9
2017-Feb-13 19:00N 47°06' W 057°54'3115.5 090 / 451006.7 -4.8-8.5 2.7
2017-Feb-13 17:00N 46°54' W 057°12'1413.7 090 / 381010.7 -5.1-8.3 2.4
2017-Feb-13 16:00N 46°48' W 056°54'1817.5 090 / 371011.8 -5.1-8.8 2.5
2017-Feb-13 15:00N 46°42' W 056°30'1413.7 090 / 351014.6 -5.3-9.0 2.4
2017-Feb-13 14:00N 46°36' W 056°12'1817.6 080 / 291014.6 -5.3-9.5 2.0
2017-Feb-13 13:00N 46°30' W 055°48'1716.5 080 / 321015.9 -5.5-9.6 2.0
2017-Feb-13 12:00N 46°30' W 055°24'2120.7 070 / 291017.7 5.4 -5.3-9.3 2.0
2017-Feb-13 11:00N 46°30' W 054°54'1817.6 070 / 231018.9 -5.0-9.2 1.9
2017-Feb-13 10:00N 46°24' W 054°30'2120.7 070 / 231019.5 -4.8-9.5 1.5
2017-Feb-13 09:00N 46°24' W 054°00'2120.7 050 / 181020.7 -4.6-8.5 1.7
2017-Feb-13 08:00N 46°24' W 053°30'1817.6 060 / 171020.8 -4.1-9.7 1.7
2017-Feb-13 07:00N 46°18' W 053°06'2221.6 040 / 171020.6 -4.1-8.8 1.4
2017-Feb-13 06:00N 46°24' W 052°36'1817.6 030 / 131021.7 -4.1-8.8 1.2
2017-Feb-13 05:00N 46°30' W 052°12'1817.6 040 / 171021.4 -3.8-8.5 1.7
2017-Feb-13 04:00N 46°36' W 051°48'1817.5 030 / 171021.9 -3.7-8.7 1.9
2017-Feb-13 03:00N 46°42' W 051°24'2121.4 010 / 141022.1 -3.6-8.8 1.7
2017-Feb-13 02:00N 46°48' W 050°54'1717.5 020 / 151022.4 -3.8-8.5 1.7
2017-Feb-13 01:00N 46°54' W 050°30'1717.4 010 / 161022.5 -4.0-8.1 1.7
2017-Feb-13 00:00N 47°00' W 050°06'2020.3 1022.9 -4.3-8.3 1.7
2017-Feb-12 23:00N 47°12' W 049°42'2020.2 360 / 161023.1 -4.5-8.8 1.7
2017-Feb-12 22:00N 47°24' W 049°18'1717.3 350 / 141023.5 -4.6-9.6 1.7
2017-Feb-12 21:00N 47°30' W 048°54'2020.1 320 / 161023.5 -4.6-9.3 1.4
2017-Feb-12 20:00N 47°42' W 048°30'2020.1 320 / 161023.1 -4.6-9.2 1.4
2017-Feb-12 19:00N 47°54' W 048°06'3718.4 300 / 211022.6 -4.1-7.8 1.5
2017-Feb-12 17:00N 48°12' W 047°18'1717.1 310 / 191022.3 -2.3-9.2 2.0
2017-Feb-12 16:00N 48°18' W 046°54'1717.0 310 / 201022.4 -2.1-7.0 3.7
2017-Feb-12 15:00N 48°24' W 046°30'1717.0 310 / 211022.2 -1.7-8.6 3.7
2017-Feb-12 14:00N 48°30' W 046°06'1717.0 310 / 191022.8 -1.3-7.7 3.5
2017-Feb-12 13:00N 48°36' W 045°42'1717.0 310 / 151023.0 -1.2-7.3 4.4
2017-Feb-12 12:00N 48°42' W 045°18'2019.8 310 / 171022.5 -0.3-6.0 4.7
2017-Feb-12 11:00N 48°54' W 044°54'2120.6 310 / 171022.0 -0.0-6.3 6.4
2017-Feb-12 10:00N 49°00' W 044°24'3718.7 310 / 191021.3 0.4-6.0 5.9
2017-Feb-12 08:00N 49°12' W 043°30'1716.8 310 / 151019.8 2.9-3.612.9
2017-Feb-12 07:00N 49°18' W 043°06'2020.4 300 / 161018.9 3.2-4.612.0
2017-Feb-12 06:00N 49°24' W 042°36'1716.7 330 / 201018.8 2.4-2.5 8.2
2017-Feb-12 05:00N 49°30' W 042°12'1716.7 310 / 281017.2 3.0-2.312.2
2017-Feb-12 04:00N 49°36' W 041°48'3718.5 300 / 311015.7 4.0 1.014.4
2017-Feb-12 02:00N 49°48' W 040°54'1716.6 320 / 251013.7 7.2 4.413.7
2017-Feb-12 01:00N 49°54' W 040°30'1919.3 330 / 241012.6 7.0 5.913.9
2017-Feb-12 00:00N 49°54' W 040°00'1716.6 310 / 281011.9 7.4 7.212.7
2017-Feb-11 23:00N 50°00' W 039°36'1716.5 280 / 211010.1 9.5 9.411.9
2017-Feb-11 22:00N 50°06' W 039°12'2020.1 130 / 151010.2 10.410.2 9.2
2017-Feb-11 21:00N 50°12' W 038°42'1616.5 130 / 171010.9 10.2 9.9 9.5
2017-Feb-11 20:00N 50°18' W 038°18'2020.1 130 / 181012.0 8.9 8.7 8.9
2017-Feb-11 19:00N 50°24' W 037°48'1919.1 130 / 191013.4 8.9 8.7 8.2
2017-Feb-11 18:00N 50°24' W 037°18'1616.4 130 / 171014.6 2.2 9.4 9.2 8.4
2017-Feb-11 17:00N 50°30' W 036°54'2020.0 130 / 171015.6 10.510.0 9.7
2017-Feb-11 16:00N 50°36' W 036°24'1616.4 140 / 171017.0 10.710.212.2
2017-Feb-11 15:00N 50°42' W 036°00'1919.0 140 / 181018.5 10.7 9.912.9
2017-Feb-11 14:00N 50°42' W 035°30'4019.9 130 / 181020.1 10.410.012.4
2017-Feb-11 12:00N 50°54' W 034°30'   140 / 161021.8 9.4 8.410.4
Track history (hours):
 
Tides and Currents Weather Stations Pressure Air Temp Water Temp Dewpoint Dewpoint Depression Visibility Wind Speed Wind Dir Waves Ship Positions

Callsign BATEU06 (name unknown)

Last reported at 2017-Feb-21 11:00 UTC. Time now 2017-Feb-21 12:03 UTC.
Position N 46°12' W 053°00'.

Wind from 020 at 13 knots

Barometer 1013.9 mb
Air temperature -1.6 ° C
Dewpoint -3.3 ° C
Water temperature 2.0 ° C

Date/timePositionNaut miles runAvg speedWind from/ knotsBaromVisibWave heightAir tempDewpointWater temp
2017-Feb-21 11:00N 46°12' W 053°00'1413.8 020 / 131013.9 -1.6-3.3 2.0
2017-Feb-21 10:00N 46°18' W 053°18'1716.6 020 / 141013.1 -1.6-3.6 1.9
2017-Feb-21 09:00N 46°18' W 053°42'1212.4 010 / 121013.6 -1.7-4.0 2.2
2017-Feb-21 08:00N 46°18' W 054°00'1413.8 020 / 111013.4 -1.6-3.3 2.2
2017-Feb-21 07:00N 46°24' W 054°18'1212.4 030 / 121013.7 -1.6-3.3 2.4
2017-Feb-21 06:00N 46°24' W 054°36'1212.4 020 / 121013.3 -1.6-3.8 2.5
2017-Feb-21 05:00N 46°24' W 054°54'1413.8 020 / 131012.7 -1.3-3.3 2.9
2017-Feb-21 04:00N 46°30' W 055°12'1212.4 030 / 131013.7 -1.3-3.6 2.9
2017-Feb-21 03:00N 46°30' W 055°30'1716.5 040 / 151013.6 -1.2-3.3 2.9
2017-Feb-21 02:00N 46°30' W 055°54'1413.8 030 / 141013.3 -0.8-2.8 2.9
2017-Feb-21 01:00N 46°36' W 056°12'1212.4 020 / 121013.0 -0.3-2.3 2.7
2017-Feb-21 00:00N 46°36' W 056°30'1413.7 030 / 131012.7 -0.3-2.3 3.2
2017-Feb-20 23:00N 46°42' W 056°48'1413.7 040 / 131012.6 -0.3-2.5 3.2
2017-Feb-20 22:00N 46°48' W 057°06'1413.7 040 / 141011.8 -0.5-2.2 3.7
2017-Feb-20 21:00N 46°54' W 057°24'1413.7 040 / 141010.9 -0.3-2.6 3.7
2017-Feb-20 20:00N 47°00' W 057°42'1616.4 050 / 141010.4 -0.3-3.0 3.5
2017-Feb-20 19:00N 47°00' W 058°06'1413.7 030 / 111010.1 -0.5-2.5 3.7
2017-Feb-20 18:00N 47°06' W 058°24'1413.6 040 / 101009.6 -0.8-2.3 3.4
2017-Feb-20 17:00N 47°12' W 058°42'1413.6 020 / 81009.9 -0.8-3.7 3.5
2017-Feb-20 16:00N 47°18' W 059°00'1413.6 330 / 101010.4 -0.8-4.3 3.5
2017-Feb-20 15:00N 47°24' W 059°18'1413.6 320 / 131010.8 -1.5-5.3 2.7
2017-Feb-20 14:00N 47°30' W 059°36'1413.5 330 / 121011.3 -2.3-6.1 2.2
2017-Feb-20 13:00N 47°36' W 059°54'1413.5 330 / 101010.9 -2.2-6.0 2.7
2017-Feb-20 12:00N 47°42' W 060°12'1413.5 350 / 91010.1 -2.1-6.3 2.5
2017-Feb-20 11:00N 47°48' W 060°30'1717.0 340 / 101009.1 -1.8-5.6 2.4
2017-Feb-20 10:00N 48°00' W 060°48'1313.4 360 / 81008.7 -2.0-5.5 1.9
2017-Feb-20 09:00N 48°06' W 061°06'1313.4 340 / 91008.5 -2.1-4.3 1.9
2017-Feb-20 08:00N 48°12' W 061°24'1313.4 340 / 91008.1 -2.3-4.3 1.7
2017-Feb-20 07:00N 48°18' W 061°42'1313.4 340 / 101007.7 -2.2-4.5 1.7
2017-Feb-20 06:00N 48°24' W 062°00'2019.9 340 / 101007.4 -2.3-5.3 1.7
2017-Feb-20 05:00N 48°36' W 062°24'1313.3 330 / 111007.1 -2.3-6.3 1.5
2017-Feb-20 04:00N 48°42' W 062°42'1313.3 320 / 131007.0 -2.3-6.0 1.9
2017-Feb-20 03:00N 48°48' W 063°00'1313.3 320 / 141007.1 -2.3-4.7 1.7
2017-Feb-20 02:00N 48°54' W 063°18'1716.8 320 / 141006.9 -2.5-5.0 1.4
2017-Feb-20 01:00N 49°06' W 063°36'1313.2 310 / 141006.6 -2.8-5.0 1.4
2017-Feb-20 00:00N 49°12' W 063°54'2814.0 310 / 161006.1 -2.8-4.8 1.0
2017-Feb-19 22:00N 49°18' W 064°36'1615.7 290 / 111005.0 -4.1-5.8 1.4
2017-Feb-19 21:00N 49°18' W 065°00'1716.7 270 / 111004.3 -4.1-5.8 1.5
2017-Feb-19 20:00N 49°24' W 065°24'1615.6 270 / 71003.4 -3.5-5.6 1.7
2017-Feb-19 19:00N 49°24' W 065°48'1313.2 310 / 21002.8 -3.3-5.2 1.5
2017-Feb-19 18:00N 49°18' W 066°06'3216.0 050 / 71001.8 -3.6-4.6 1.5
2017-Feb-19 16:00N 49°12' W 066°54'1313.2 030 / 121001.0 -3.2-4.0 1.4
2017-Feb-19 15:00N 49°06' W 067°12'1716.8 030 / 191000.4 -3.3-5.3 1.2
2017-Feb-19 14:00N 49°00' W 067°36'1313.3 040 / 21999.8 -3.8-6.5 0.9
2017-Feb-19 13:00N 48°54' W 067°54'1313.3 050 / 14999.1 -3.5-5.6 0.7
2017-Feb-19 12:00N 48°48' W 068°12'10 9.9 050 / 14998.2 -3.3-4.7 0.7
2017-Feb-19 11:00N 48°42' W 068°24'1313.3 050 / 12997.4 -3.1-3.8 0.9
2017-Feb-19 10:00N 48°36' W 068°42'1716.9 050 / 13996.1 -2.8-3.6 1.4
2017-Feb-19 09:00N 48°24' W 069°00'1313.4 010 / 14996.1 -2.6-3.1 0.7
2017-Feb-19 08:00N 48°18' W 069°18'1717.0 340 / 8995.3 -2.8-4.2 0.7
2017-Feb-19 07:00N 48°06' W 069°36'2019.7 020 / 10993.6 -2.6-4.2 1.5
2017-Feb-19 06:00N 47°48' W 069°48'1717.1 030 / 9993.0 -2.2-3.8 1.4
2017-Feb-19 05:00N 47°36' W 070°06'3919.3 060 / 6992.2 -1.3-3.0 1.7
2017-Feb-19 03:00N 47°06' W 070°42'1514.5 230 / 15991.8 0.7-3.3 1.9
2017-Feb-19 02:00N 46°54' W 070°54'1413.7 220 / 8993.5 -0.2-5.6 2.0
2017-Feb-19 01:00N 46°48' W 071°12'1413.7 220 / 6994.3 -0.5-4.0 2.2
2017-Feb-19 00:00N 46°42' W 071°30'1616.5 100 / 1993.4 -0.2-6.6 2.0
2017-Feb-18 23:00N 46°42' W 071°54'1717.2 060 / 4992.8 -0.3-4.5 2.0
2017-Feb-18 22:00N 46°30' W 072°12'1413.8 040 / 6992.2 0.2-5.0 1.9
2017-Feb-18 21:00N 46°24' W 072°30'1010.2 220 / 7993.5 3.5-7.0 1.9
2017-Feb-18 20:00N 46°18' W 072°42'1010.2 230 / 4994.6 1.7-6.3 2.4
2017-Feb-18 19:00N 46°12' W 072°54'1010.3 190 / 10995.6 3.4-5.5 2.2
2017-Feb-18 18:00N 46°06' W 073°06'1312.7 200 / 3997.0 1.4-6.6 1.9
2017-Feb-18 17:00N 45°54' W 073°12'1514.6 300 / 2999.1 -0.3-6.6 1.9
2017-Feb-18 16:00N 45°42' W 073°24'7 7.3 140 / 91000.1 1.2-5.8 1.9
2017-Feb-18 15:00N 45°36' W 073°30'   150 / 41000.9 0.4-6.7 1.7
2017-Feb-15 23:00N 45°42' W 073°30'1010.3 360 / 15995.8 -4.8-5.8 1.7
2017-Feb-15 22:00N 45°48' W 073°18'7 7.3 010 / 11995.9 -3.3-5.8 1.7
2017-Feb-15 21:00N 45°54' W 073°12'1312.7 030 / 15995.9 -2.8-5.7 1.7
2017-Feb-15 20:00N 46°06' W 073°06'1010.3 030 / 17996.1 -3.3-5.8 1.7
2017-Feb-15 19:00N 46°12' W 072°54'1010.2 040 / 16996.8 -5.2-6.6 1.7
2017-Feb-15 18:00N 46°18' W 072°42'8 8.3 050 / 18997.2 -5.8-6.6 1.9
2017-Feb-15 17:00N 46°18' W 072°30'1010.2 060 / 11998.2 -5.6-7.3 1.9
2017-Feb-15 16:00N 46°24' W 072°18'1514.6 060 / 14999.3 -5.5-8.6 1.9
2017-Feb-15 15:00N 46°36' W 072°06'1010.2 080 / 181000.0 -5.7-7.3 1.9
2017-Feb-15 14:00N 46°42' W 071°54'1212.3 070 / 181001.5 -6.7-8.5 1.9
2017-Feb-15 13:00N 46°42' W 071°36'1817.5 080 / 191002.4 -6.7-8.1 1.9
2017-Feb-15 12:00N 46°48' W 071°12'2713.6 060 / 161004.0 -7.1-10.1 1.7
2017-Feb-15 10:00N 47°06' W 070°42'2019.8 010 / 131006.6 -7.5-10.3 1.7
2017-Feb-15 09:00N 47°24' W 070°30'2020.2 300 / 81006.7 -9.8-12.6 1.2
2017-Feb-15 08:00N 47°36' W 070°06'1717.1 010 / 31007.5 -8.3-11.3 1.2
2017-Feb-15 07:00N 47°48' W 069°48'2019.7 080 / 71008.0 -8.1-11.6 1.0
2017-Feb-15 06:00N 48°06' W 069°36'1414.4 030 / 71008.6 -8.8-11.3 0.7
2017-Feb-15 05:00N 48°18' W 069°24'1010.0 340 / 71009.2 -9.8-12.7 0.4
2017-Feb-15 04:00N 48°24' W 069°12'1716.9 340 / 111009.0 -9.0-11.6 1.4
2017-Feb-15 03:00N 48°36' W 068°54'1313.3 1009.3 -7.8-11.0 1.7
2017-Feb-15 02:00N 48°42' W 068°36'3014.9 360 / 101009.5 -8.3-11.6 1.0
2017-Feb-15 00:00N 49°00' W 068°00'1313.2 030 / 91009.7 -7.7-11.3 0.7
2017-Feb-14 23:00N 49°06' W 067°42'3015.0 030 / 121009.6 -7.8-10.8 0.9
2017-Feb-14 21:00N 49°18' W 067°00'3215.9 040 / 131009.5 -7.6-10.8 0.5
2017-Feb-14 19:00N 49°24' W 066°12'1716.7 050 / 101010.1 -7.5-11.1 0.4
2017-Feb-14 18:00N 49°30' W 065°48'1716.7 030 / 101010.1 -7.3-11.1 0.5
2017-Feb-14 17:00N 49°24' W 065°24'1615.6 1010.5 -7.6-11.2 1.9
2017-Feb-14 16:00N 49°24' W 065°00'1615.6 1010.7 -8.3-11.7 1.7
2017-Feb-14 15:00N 49°24' W 064°36'1615.6 1010.9 -9.2-12.0 1.7
2017-Feb-14 14:00N 49°24' W 064°12'1716.7 1010.8 -9.5-12.1 1.7
2017-Feb-14 13:00N 49°18' W 063°48'1313.2 1009.6 -9.5-11.8 1.2
2017-Feb-14 12:00N 49°12' W 063°30'3014.8 1008.7 -9.0-11.3 0.4
2017-Feb-14 10:00N 48°54' W 062°54'1716.9 010 / 271006.0 -8.8-10.6 0.7
2017-Feb-14 09:00N 48°48' W 062°30'1716.9 020 / 291005.9 -7.3-9.2 0.4
2017-Feb-14 08:00N 48°36' W 062°12'1313.3 050 / 231005.3 -5.3-9.0 0.9
2017-Feb-14 07:00N 48°30' W 061°54'1313.4 060 / 261005.0 -5.0-8.3 1.0
2017-Feb-14 06:00N 48°24' W 061°36'1717.0 060 / 271004.4 -4.7-8.1 0.9
2017-Feb-14 05:00N 48°12' W 061°18'1717.1 060 / 281004.5 -5.0-9.1 0.9
2017-Feb-14 04:00N 48°06' W 060°54'1313.4 060 / 321004.3 -5.3-9.5 1.2
2017-Feb-14 03:00N 48°00' W 060°36'1313.5 060 / 271004.3 -5.7-9.1 1.5
2017-Feb-14 02:00N 47°54' W 060°18'1717.0 060 / 261004.8 -6.3-10.2 1.5
2017-Feb-14 01:00N 47°42' W 060°00'1717.2 060 / 301004.7 -6.1-11.6 2.2
2017-Feb-14 00:00N 47°36' W 059°36'1413.5 070 / 351005.3 2.2 -6.8-12.2 1.5
2017-Feb-13 23:00N 47°30' W 059°18'3115.4 070 / 501003.2 -6.3-10.3 2.0
2017-Feb-13 21:00N 47°18' W 058°36'1413.6 080 / 451005.7 -5.1-7.8 2.5
2017-Feb-13 20:00N 47°12' W 058°18'1717.4 070 / 411006.3 -5.2-7.3 2.9
2017-Feb-13 19:00N 47°06' W 057°54'3115.5 090 / 451006.7 -4.8-8.5 2.7
2017-Feb-13 17:00N 46°54' W 057°12'1413.7 090 / 381010.7 -5.1-8.3 2.4
2017-Feb-13 16:00N 46°48' W 056°54'1817.5 090 / 371011.8 -5.1-8.8 2.5
2017-Feb-13 15:00N 46°42' W 056°30'1413.7 090 / 351014.6 -5.3-9.0 2.4
2017-Feb-13 14:00N 46°36' W 056°12'1817.6 080 / 291014.6 -5.3-9.5 2.0
2017-Feb-13 13:00N 46°30' W 055°48'1716.5 080 / 321015.9 -5.5-9.6 2.0
2017-Feb-13 12:00N 46°30' W 055°24'2120.7 070 / 291017.7 5.4 -5.3-9.3 2.0
2017-Feb-13 11:00N 46°30' W 054°54'1817.6 070 / 231018.9 -5.0-9.2 1.9
2017-Feb-13 10:00N 46°24' W 054°30'2120.7 070 / 231019.5 -4.8-9.5 1.5
2017-Feb-13 09:00N 46°24' W 054°00'2120.7 050 / 181020.7 -4.6-8.5 1.7
2017-Feb-13 08:00N 46°24' W 053°30'1817.6 060 / 171020.8 -4.1-9.7 1.7
2017-Feb-13 07:00N 46°18' W 053°06'2221.6 040 / 171020.6 -4.1-8.8 1.4
2017-Feb-13 06:00N 46°24' W 052°36'1817.6 030 / 131021.7 -4.1-8.8 1.2
2017-Feb-13 05:00N 46°30' W 052°12'1817.6 040 / 171021.4 -3.8-8.5 1.7
2017-Feb-13 04:00N 46°36' W 051°48'1817.5 030 / 171021.9 -3.7-8.7 1.9
2017-Feb-13 03:00N 46°42' W 051°24'2121.4 010 / 141022.1 -3.6-8.8 1.7
2017-Feb-13 02:00N 46°48' W 050°54'1717.5 020 / 151022.4 -3.8-8.5 1.7
2017-Feb-13 01:00N 46°54' W 050°30'1717.4 010 / 161022.5 -4.0-8.1 1.7
2017-Feb-13 00:00N 47°00' W 050°06'2020.3 1022.9 -4.3-8.3 1.7
2017-Feb-12 23:00N 47°12' W 049°42'2020.2 360 / 161023.1 -4.5-8.8 1.7
2017-Feb-12 22:00N 47°24' W 049°18'1717.3 350 / 141023.5 -4.6-9.6 1.7
2017-Feb-12 21:00N 47°30' W 048°54'2020.1 320 / 161023.5 -4.6-9.3 1.4
2017-Feb-12 20:00N 47°42' W 048°30'2020.1 320 / 161023.1 -4.6-9.2 1.4
2017-Feb-12 19:00N 47°54' W 048°06'3718.4 300 / 211022.6 -4.1-7.8 1.5
2017-Feb-12 17:00N 48°12' W 047°18'1717.1 310 / 191022.3 -2.3-9.2 2.0
2017-Feb-12 16:00N 48°18' W 046°54'1717.0 310 / 201022.4 -2.1-7.0 3.7
2017-Feb-12 15:00N 48°24' W 046°30'1717.0 310 / 211022.2 -1.7-8.6 3.7
2017-Feb-12 14:00N 48°30' W 046°06'1717.0 310 / 191022.8 -1.3-7.7 3.5
2017-Feb-12 13:00N 48°36' W 045°42'1717.0 310 / 151023.0 -1.2-7.3 4.4
2017-Feb-12 12:00N 48°42' W 045°18'2019.8 310 / 171022.5 -0.3-6.0 4.7
2017-Feb-12 11:00N 48°54' W 044°54'2120.6 310 / 171022.0 -0.0-6.3 6.4
2017-Feb-12 10:00N 49°00' W 044°24'3718.7 310 / 191021.3 0.4-6.0 5.9
2017-Feb-12 08:00N 49°12' W 043°30'1716.8 310 / 151019.8 2.9-3.612.9
2017-Feb-12 07:00N 49°18' W 043°06'2020.4 300 / 161018.9 3.2-4.612.0
2017-Feb-12 06:00N 49°24' W 042°36'1716.7 330 / 201018.8 2.4-2.5 8.2
2017-Feb-12 05:00N 49°30' W 042°12'1716.7 310 / 281017.2 3.0-2.312.2
2017-Feb-12 04:00N 49°36' W 041°48'3718.5 300 / 311015.7 4.0 1.014.4
2017-Feb-12 02:00N 49°48' W 040°54'1716.6 320 / 251013.7 7.2 4.413.7
2017-Feb-12 01:00N 49°54' W 040°30'1919.3 330 / 241012.6 7.0 5.913.9
2017-Feb-12 00:00N 49°54' W 040°00'1716.6 310 / 281011.9 7.4 7.212.7
2017-Feb-11 23:00N 50°00' W 039°36'1716.5 280 / 211010.1 9.5 9.411.9
2017-Feb-11 22:00N 50°06' W 039°12'2020.1 130 / 151010.2 10.410.2 9.2
2017-Feb-11 21:00N 50°12' W 038°42'1616.5 130 / 171010.9 10.2 9.9 9.5
2017-Feb-11 20:00N 50°18' W 038°18'2020.1 130 / 181012.0 8.9 8.7 8.9
2017-Feb-11 19:00N 50°24' W 037°48'1919.1 130 / 191013.4 8.9 8.7 8.2
2017-Feb-11 18:00N 50°24' W 037°18'1616.4 130 / 171014.6 2.2 9.4 9.2 8.4
2017-Feb-11 17:00N 50°30' W 036°54'2020.0 130 / 171015.6 10.510.0 9.7
2017-Feb-11 16:00N 50°36' W 036°24'1616.4 140 / 171017.0 10.710.212.2
2017-Feb-11 15:00N 50°42' W 036°00'1919.0 140 / 181018.5 10.7 9.912.9
2017-Feb-11 14:00N 50°42' W 035°30'4019.9 130 / 181020.1 10.410.012.4
2017-Feb-11 12:00N 50°54' W 034°30'   140 / 161021.8 9.4 8.410.4

Dump ship's entire track history